Culbertson, Montana
Current Conditions -  °F | °C
As of 12:55 PM on Thursday 30 Oct 2014 (Local Time) from KSDY Reporting Station
Overcast Overcast  
Wind Chill: 32°   Ceiling: 1400
Heat Index: 37°   Visibility: 10mi
Dew Point: 32°   Wind: 7mph
Humidity: 81%   Direction: 10°N
Pressure: 30.45"   Gusts: NA
Location:  48.14°N, 104.52°W
Report Text: KSDY 301855Z AUTO 01006KT 10SM OVC014 03/00 A3045 RMK AO1
Loading
Personal Weather Stations






























Interactive Weather Map
Tropical Storm Tracking
New forecast layout! Learn more

10-Day Weather Forecast

Advertisements
Track Severe Weather on mobile